createdAt,value
2023-02-25T00:00:17.588Z,8.50
2023-02-25T00:03:20.804Z,12.63
2023-02-25T00:06:25.068Z,14.80
2023-02-25T00:09:28.483Z,11.70
2023-02-25T00:12:33.063Z,10.80
2023-02-25T00:15:36.034Z,14.57
2023-02-25T00:18:40.898Z,15.00
2023-02-25T00:21:43.909Z,11.70
2023-02-25T00:24:46.984Z,9.93
2023-02-25T00:27:51.432Z,7.97
2023-02-25T00:30:54.717Z,4.40
2023-02-25T00:33:57.733Z,4.20
2023-02-25T00:37:00.862Z,3.70
2023-02-25T00:40:05.024Z,4.23
2023-02-25T00:43:15.351Z,3.50
2023-02-25T00:46:18.643Z,3.93
2023-02-25T00:49:32.210Z,3.53
2023-02-25T00:52:35.958Z,3.53
2023-02-25T00:55:39.894Z,3.67
2023-02-25T00:58:45.454Z,4.00
2023-02-25T01:01:48.887Z,5.47
2023-02-25T01:04:52.117Z,4.00
2023-02-25T01:07:55.295Z,4.80
2023-02-25T01:10:58.368Z,4.60
2023-02-25T01:14:05.214Z,4.30
2023-02-25T01:17:09.703Z,4.93
2023-02-25T01:20:13.351Z,4.40
2023-02-25T01:23:16.461Z,4.70
2023-02-25T01:26:19.690Z,4.40
2023-02-25T01:29:26.586Z,4.77
2023-02-25T01:32:29.829Z,4.93
2023-02-25T01:35:32.978Z,5.17
2023-02-25T01:38:36.199Z,8.70
2023-02-25T01:41:40.296Z,4.77
2023-02-25T01:45:17.549Z,7.43
2023-02-25T01:48:25.037Z,5.37
2023-02-25T01:51:28.954Z,5.20
2023-02-25T01:54:33.237Z,6.73
2023-02-25T01:57:36.867Z,6.80
2023-02-25T02:00:40.335Z,7.53
2023-02-25T02:03:45.025Z,5.50
2023-02-25T02:06:50.544Z,6.23
2023-02-25T02:09:56.919Z,7.00
2023-02-25T02:13:00.123Z,5.43
2023-02-25T02:16:26.689Z,5.80
2023-02-25T02:19:44.390Z,6.23
2023-02-25T02:22:59.104Z,4.50
2023-02-25T02:26:35.348Z,4.83
2023-02-25T02:30:03.832Z,5.27
2023-02-25T02:33:15.091Z,5.40
2023-02-25T02:36:26.528Z,4.27
2023-02-25T02:39:44.610Z,4.50
2023-02-25T02:43:05.571Z,4.23
2023-02-25T02:46:15.749Z,4.20
2023-02-25T02:49:26.878Z,4.50
2023-02-25T02:52:32.761Z,4.10
2023-02-25T02:55:41.148Z,4.23
2023-02-25T02:58:48.338Z,4.10
2023-02-25T03:01:55.037Z,4.10
2023-02-25T03:05:02.916Z,4.53
2023-02-25T03:08:11.003Z,4.47
2023-02-25T03:11:14.842Z,4.43
2023-02-25T03:14:18.406Z,4.40
2023-02-25T03:17:24.940Z,4.27
2023-02-25T03:20:34.794Z,4.60
2023-02-25T03:23:41.793Z,4.00
2023-02-25T03:26:44.773Z,4.80
2023-02-25T03:29:47.932Z,4.30
2023-02-25T03:32:54.938Z,4.70
2023-02-25T03:36:00.756Z,4.27
2023-02-25T03:39:09.749Z,3.70
2023-02-25T03:42:18.222Z,3.80
2023-02-25T03:45:22.824Z,3.87
2023-02-25T03:48:27.344Z,4.20
2023-02-25T03:51:36.795Z,4.20
2023-02-25T03:54:39.904Z,3.83
2023-02-25T03:57:45.107Z,3.83
2023-02-25T04:00:52.024Z,3.37
2023-02-25T04:03:55.149Z,3.50
2023-02-25T04:06:59.965Z,3.60
2023-02-25T04:10:03.196Z,3.60
2023-02-25T04:13:06.724Z,3.30
2023-02-25T04:16:09.887Z,3.10
2023-02-25T04:19:12.923Z,3.60
2023-02-25T04:22:17.427Z,3.40
2023-02-25T04:25:20.485Z,3.60
2023-02-25T04:28:23.422Z,3.20
2023-02-25T04:31:30.681Z,3.30
2023-02-25T04:34:33.654Z,3.77
2023-02-25T04:37:38.149Z,3.30
2023-02-25T04:40:41.315Z,3.57
2023-02-25T04:43:45.418Z,3.67
2023-02-25T04:46:51.711Z,3.70
2023-02-25T04:49:54.899Z,4.50
2023-02-25T04:53:02.176Z,4.93
2023-02-25T04:56:06.294Z,4.50
2023-02-25T04:59:11.302Z,5.20
2023-02-25T05:02:14.430Z,4.80
2023-02-25T05:05:18.423Z,5.37
2023-02-25T05:08:23.424Z,6.03
2023-02-25T05:11:27.468Z,6.40
2023-02-25T05:14:32.879Z,6.20
2023-02-25T05:17:36.814Z,5.13
2023-02-25T05:20:42.202Z,5.00
2023-02-25T05:23:47.823Z,5.63
2023-02-25T05:26:52.417Z,5.90
2023-02-25T05:29:56.067Z,4.23
2023-02-25T05:32:59.375Z,4.57
2023-02-25T05:36:06.124Z,3.37
2023-02-25T05:39:14.640Z,3.50
2023-02-25T05:42:17.634Z,3.30
2023-02-25T05:45:20.691Z,3.60
2023-02-25T05:48:24.432Z,4.30
2023-02-25T05:51:27.705Z,3.97
2023-02-25T05:54:32.077Z,4.13
2023-02-25T05:57:35.105Z,4.50
2023-02-25T06:00:38.451Z,4.80
2023-02-25T06:03:42.184Z,5.20
2023-02-25T06:06:51.801Z,4.83
2023-02-25T06:09:59.970Z,4.50
2023-02-25T06:13:02.924Z,4.53
2023-02-25T06:16:06.767Z,5.47
2023-02-25T06:19:11.605Z,5.50
2023-02-25T06:22:14.601Z,6.67
2023-02-25T06:25:19.520Z,6.40
2023-02-25T06:28:24.486Z,6.40
2023-02-25T06:31:27.885Z,5.80
2023-02-25T06:34:33.600Z,4.90
2023-02-25T06:37:36.738Z,5.10
2023-02-25T06:40:41.138Z,5.03
2023-02-25T06:43:44.509Z,5.00
2023-02-25T06:46:47.543Z,5.70
2023-02-25T06:49:50.499Z,5.27
2023-02-25T06:52:53.538Z,5.67
2023-02-25T06:55:59.978Z,5.80
2023-02-25T06:59:02.925Z,6.30
2023-02-25T07:02:05.981Z,5.57
2023-02-25T07:05:09.727Z,5.40
2023-02-25T07:08:12.695Z,5.40
2023-02-25T07:11:29.624Z,5.03
2023-02-25T07:14:32.634Z,5.47
2023-02-25T07:17:37.484Z,4.50
2023-02-25T07:20:40.958Z,4.33
2023-02-25T07:23:43.958Z,3.70
2023-02-25T07:26:48.375Z,3.60
2023-02-25T07:29:51.299Z,3.57
2023-02-25T07:32:54.384Z,3.37
2023-02-25T07:35:57.531Z,3.60
2023-02-25T07:39:01.920Z,3.33
2023-02-25T07:42:06.523Z,3.77
2023-02-25T07:45:11.802Z,3.80
2023-02-25T07:48:14.773Z,3.50
2023-02-25T07:51:20.178Z,3.07
2023-02-25T07:54:23.390Z,3.20
2023-02-25T07:57:28.848Z,3.30
2023-02-25T08:00:32.149Z,3.20
2023-02-25T08:03:35.364Z,3.30
2023-02-25T08:06:41.322Z,3.10
2023-02-25T08:09:44.656Z,3.43
2023-02-25T08:12:48.967Z,4.10
2023-02-25T08:15:51.969Z,3.60
2023-02-25T08:18:55.575Z,3.43
2023-02-25T08:21:58.566Z,3.07
2023-02-25T08:25:01.579Z,3.80
2023-02-25T08:28:06.239Z,3.37
2023-02-25T08:31:12.051Z,3.30
2023-02-25T08:34:15.252Z,3.43
2023-02-25T08:37:18.338Z,3.47
2023-02-25T08:40:21.842Z,3.23
2023-02-25T08:43:26.373Z,3.50
2023-02-25T08:46:31.309Z,3.17
2023-02-25T08:49:34.374Z,3.13
2023-02-25T08:52:37.557Z,3.30
2023-02-25T08:55:41.015Z,3.27
2023-02-25T08:58:46.052Z,3.90
2023-02-25T09:01:50.442Z,3.00
2023-02-25T09:04:53.494Z,3.33
2023-02-25T09:07:56.519Z,3.07
2023-02-25T09:10:59.491Z,3.20
2023-02-25T09:14:03.970Z,3.17
2023-02-25T09:17:07.598Z,3.30
2023-02-25T09:20:12.204Z,3.00
2023-02-25T09:23:17.578Z,3.20
2023-02-25T09:26:21.747Z,3.27
2023-02-25T09:29:26.260Z,2.90
2023-02-25T09:32:29.464Z,2.70
2023-02-25T09:35:32.773Z,2.80
2023-02-25T09:38:36.320Z,2.80
2023-02-25T09:41:47.792Z,2.90
2023-02-25T09:44:54.436Z,3.30
2023-02-25T09:48:01.033Z,2.90
2023-02-25T09:51:13.032Z,2.93
2023-02-25T09:54:23.301Z,2.83
2023-02-25T09:57:26.280Z,2.93
2023-02-25T10:00:34.903Z,2.93
2023-02-25T10:03:59.206Z,3.03
2023-02-25T10:07:09.546Z,2.67
2023-02-25T10:10:22.448Z,2.90
2023-02-25T10:13:36.306Z,3.37
2023-02-25T10:16:48.855Z,2.90
2023-02-25T10:20:13.478Z,3.23
2023-02-25T10:23:28.913Z,2.60
2023-02-25T10:26:39.072Z,2.70
2023-02-25T10:29:49.251Z,3.00
2023-02-25T10:32:54.328Z,2.73
2023-02-25T10:36:07.102Z,3.07
2023-02-25T10:39:12.124Z,3.10
2023-02-25T10:42:15.968Z,2.87
2023-02-25T10:45:25.252Z,2.90
2023-02-25T10:48:30.617Z,3.00
2023-02-25T10:51:33.596Z,3.17
2023-02-25T10:54:47.722Z,3.10
2023-02-25T10:57:51.035Z,2.90
2023-02-25T11:00:59.092Z,3.13
2023-02-25T11:04:11.933Z,3.00
2023-02-25T11:07:26.446Z,2.93
2023-02-25T11:10:29.509Z,3.10
2023-02-25T11:13:36.778Z,3.67
2023-02-25T11:16:42.019Z,3.30
2023-02-25T11:19:49.822Z,3.03
2023-02-25T11:22:54.894Z,2.80
2023-02-25T11:25:58.327Z,3.00
2023-02-25T11:29:04.016Z,3.30
2023-02-25T11:32:12.640Z,3.50
2023-02-25T11:35:21.762Z,3.47
2023-02-25T11:38:28.392Z,2.70
2023-02-25T11:41:33.132Z,2.60
2023-02-25T11:44:47.260Z,3.37
2023-02-25T11:47:50.466Z,3.03
2023-02-25T11:51:05.645Z,3.20
2023-02-25T11:54:28.946Z,3.00
2023-02-25T11:57:39.225Z,3.00
2023-02-25T12:00:50.088Z,3.20
2023-02-25T12:04:08.413Z,3.20
2023-02-25T12:08:00.014Z,3.07
2023-02-25T12:11:40.432Z,3.27
2023-02-25T12:15:23.571Z,2.80
2023-02-25T12:19:02.714Z,2.87
2023-02-25T12:22:24.192Z,3.20
2023-02-25T12:25:33.849Z,4.00
2023-02-25T12:29:18.789Z,3.43
2023-02-25T12:32:41.638Z,3.87
2023-02-25T12:35:54.627Z,3.30
2023-02-25T12:39:14.946Z,3.07
2023-02-25T12:42:39.232Z,2.60
2023-02-25T12:46:06.290Z,3.33
2023-02-25T12:49:36.894Z,3.10
2023-02-25T12:52:50.779Z,3.43
2023-02-25T12:56:19.747Z,3.33
2023-02-25T12:59:52.246Z,3.20
2023-02-25T13:03:15.373Z,3.40
2023-02-25T13:06:27.708Z,3.23
2023-02-25T13:09:50.963Z,3.30
2023-02-25T13:13:07.113Z,3.13
2023-02-25T13:16:24.965Z,3.20
2023-02-25T13:19:55.753Z,3.97
2023-02-25T13:23:12.949Z,3.70
2023-02-25T13:26:39.294Z,3.40
2023-02-25T13:30:10.055Z,4.00
2023-02-25T13:33:46.064Z,3.87
2023-02-25T13:37:09.292Z,3.57
2023-02-25T13:40:42.027Z,3.33
2023-02-25T13:44:01.857Z,3.83
2023-02-25T13:47:24.100Z,3.80
2023-02-25T13:50:42.475Z,3.73
2023-02-25T13:54:02.516Z,3.70
2023-02-25T13:57:28.654Z,3.70
2023-02-25T14:01:04.664Z,4.33
2023-02-25T14:04:44.434Z,3.57
2023-02-25T14:08:09.017Z,3.80
2023-02-25T14:11:30.273Z,4.20
2023-02-25T14:15:06.048Z,3.80
2023-02-25T14:18:32.068Z,3.47
2023-02-25T14:22:10.889Z,3.40
2023-02-25T14:25:23.692Z,3.60
2023-02-25T14:28:34.899Z,4.20
2023-02-25T14:31:54.206Z,4.17
2023-02-25T14:35:15.988Z,3.93
2023-02-25T14:38:32.028Z,3.83
2023-02-25T14:41:48.054Z,3.83
2023-02-25T14:44:58.419Z,3.90
2023-02-25T14:48:05.941Z,3.77
2023-02-25T14:51:40.040Z,4.17
2023-02-25T14:55:26.733Z,3.40
2023-02-25T14:58:50.958Z,4.20
2023-02-25T15:02:48.488Z,3.80
2023-02-25T15:06:19.956Z,3.50
2023-02-25T15:09:42.096Z,4.00
2023-02-25T15:13:04.510Z,3.90
2023-02-25T15:16:50.196Z,3.77
2023-02-25T15:20:15.402Z,3.37
2023-02-25T15:23:20.416Z,3.80
2023-02-25T15:26:27.535Z,3.73
2023-02-25T15:29:56.530Z,3.80
2023-02-25T15:33:14.673Z,3.30
2023-02-25T15:36:26.987Z,3.30
2023-02-25T15:39:49.058Z,3.20
2023-02-25T15:42:54.257Z,3.50
2023-02-25T15:46:37.010Z,3.13
2023-02-25T15:49:47.682Z,3.23
2023-02-25T15:52:53.677Z,3.60
2023-02-25T15:56:31.219Z,3.30
2023-02-25T15:59:48.187Z,4.03
2023-02-25T16:03:03.687Z,3.30
2023-02-25T16:06:14.800Z,3.47
2023-02-25T16:09:19.096Z,3.23
2023-02-25T16:12:23.898Z,3.30
2023-02-25T16:15:32.471Z,3.80
2023-02-25T16:18:42.595Z,3.10
2023-02-25T16:21:49.049Z,3.60
2023-02-25T16:24:54.146Z,4.03
2023-02-25T16:28:05.746Z,4.27
2023-02-25T16:31:18.698Z,4.03
2023-02-25T16:34:28.023Z,3.67
2023-02-25T16:37:37.258Z,3.77
2023-02-25T16:40:41.957Z,3.97
2023-02-25T16:43:45.764Z,3.47
2023-02-25T16:46:52.599Z,3.40
2023-02-25T16:49:59.208Z,3.53
2023-02-25T16:53:04.970Z,3.20
2023-02-25T16:56:14.654Z,3.83
2023-02-25T16:59:20.145Z,3.80
2023-02-25T17:02:25.324Z,3.97
2023-02-25T17:05:32.379Z,3.50
2023-02-25T17:08:36.498Z,3.60
2023-02-25T17:11:40.193Z,4.10
2023-02-25T17:14:46.049Z,3.80
2023-02-25T17:17:53.383Z,4.00
2023-02-25T17:21:03.179Z,3.70
2023-02-25T17:24:09.834Z,3.30
2023-02-25T17:27:12.947Z,3.53
2023-02-25T17:30:33.915Z,3.83
2023-02-25T17:33:46.567Z,4.00
2023-02-25T17:36:52.536Z,3.50
2023-02-25T17:39:55.813Z,3.63
2023-02-25T17:43:22.154Z,3.83
2023-02-25T17:46:30.421Z,3.50
2023-02-25T17:49:35.678Z,3.43
2023-02-25T17:52:41.321Z,3.60
2023-02-25T17:55:46.332Z,6.90
2023-02-25T17:58:50.261Z,5.07
2023-02-25T18:01:55.486Z,3.60
2023-02-25T18:05:31.202Z,3.40
2023-02-25T18:08:56.182Z,4.77
2023-02-25T18:12:01.366Z,4.23
2023-02-25T18:15:15.571Z,3.90
2023-02-25T18:18:22.900Z,4.10
2023-02-25T18:21:26.154Z,4.57
2023-02-25T18:24:33.305Z,4.70
2023-02-25T18:27:37.856Z,4.43
2023-02-25T18:30:41.430Z,4.53
2023-02-25T18:33:46.050Z,4.90
2023-02-25T18:36:49.092Z,4.70
2023-02-25T18:39:53.696Z,4.67
2023-02-25T18:42:57.165Z,4.40
2023-02-25T18:46:00.186Z,4.33
2023-02-25T18:49:03.194Z,4.50
2023-02-25T18:52:09.478Z,4.40
2023-02-25T18:55:19.306Z,5.37
2023-02-25T18:58:22.969Z,4.87
2023-02-25T19:01:29.488Z,4.60
2023-02-25T19:04:32.500Z,5.03
2023-02-25T19:07:37.165Z,4.50
2023-02-25T19:10:41.643Z,4.77
2023-02-25T19:13:44.796Z,4.43
2023-02-25T19:16:47.716Z,4.90
2023-02-25T19:19:52.276Z,4.13
2023-02-25T19:22:55.411Z,4.40
2023-02-25T19:26:01.353Z,5.03
2023-02-25T19:29:04.695Z,5.03
2023-02-25T19:32:07.842Z,4.47
2023-02-25T19:35:11.348Z,5.13
2023-02-25T19:38:16.101Z,4.43
2023-02-25T19:41:20.502Z,4.10
2023-02-25T19:44:23.456Z,4.70
2023-02-25T19:47:26.882Z,4.37
2023-02-25T19:50:32.054Z,4.77
2023-02-25T19:53:36.231Z,4.47
2023-02-25T19:56:40.565Z,3.93
2023-02-25T19:59:43.647Z,4.70
2023-02-25T20:02:48.059Z,4.37
2023-02-25T20:05:52.219Z,4.30
2023-02-25T20:08:55.793Z,3.93
2023-02-25T20:12:00.326Z,4.20
2023-02-25T20:15:03.239Z,4.50
2023-02-25T20:18:06.683Z,3.60
2023-02-25T20:21:09.670Z,4.40
2023-02-25T20:24:15.610Z,4.57
2023-02-25T20:27:19.971Z,4.20
2023-02-25T20:30:23.618Z,3.77
2023-02-25T20:33:27.960Z,4.27
2023-02-25T20:36:35.454Z,4.00
2023-02-25T20:39:54.384Z,3.93
2023-02-25T20:42:59.034Z,4.40
2023-02-25T20:46:02.309Z,3.77
2023-02-25T20:49:05.891Z,4.63
2023-02-25T20:52:10.786Z,4.57
2023-02-25T20:55:14.990Z,4.40
2023-02-25T20:58:19.690Z,4.60
2023-02-25T21:01:23.279Z,4.87
2023-02-25T21:04:26.440Z,4.63
2023-02-25T21:07:29.672Z,4.10
2023-02-25T21:10:32.675Z,4.30
2023-02-25T21:13:37.196Z,4.37
2023-02-25T21:16:40.213Z,3.73
2023-02-25T21:19:43.628Z,4.13
2023-02-25T21:22:48.650Z,4.47
2023-02-25T21:25:51.639Z,4.63
2023-02-25T21:28:56.062Z,4.13
2023-02-25T21:31:59.035Z,4.30
2023-02-25T21:35:02.030Z,3.87
2023-02-25T21:38:05.377Z,3.97
2023-02-25T21:41:10.285Z,4.30
2023-02-25T21:44:14.964Z,4.20
2023-02-25T21:47:18.199Z,4.23
2023-02-25T21:50:21.151Z,3.90
2023-02-25T21:53:26.693Z,4.10
2023-02-25T21:56:31.005Z,4.30
2023-02-25T21:59:35.354Z,4.30
2023-02-25T22:02:38.764Z,4.40
2023-02-25T22:05:45.833Z,4.23
2023-02-25T22:08:48.883Z,4.27
2023-02-25T22:11:51.866Z,4.70
2023-02-25T22:14:56.118Z,3.77
2023-02-25T22:17:59.159Z,4.13
2023-02-25T22:21:11.972Z,4.13
2023-02-25T22:24:15.358Z,3.63
2023-02-25T22:27:18.259Z,4.50
2023-02-25T22:30:22.814Z,3.90
2023-02-25T22:33:25.945Z,4.63
2023-02-25T22:36:29.639Z,3.77
2023-02-25T22:39:32.586Z,4.03
2023-02-25T22:42:35.558Z,3.90
2023-02-25T22:45:39.899Z,4.33
2023-02-25T22:48:44.280Z,4.23
2023-02-25T22:51:48.500Z,4.10
2023-02-25T22:54:52.751Z,4.30
2023-02-25T22:57:55.716Z,4.80
2023-02-25T23:01:00.794Z,3.97
2023-02-25T23:04:03.790Z,4.40
2023-02-25T23:07:06.786Z,3.83
2023-02-25T23:10:11.192Z,3.97
2023-02-25T23:13:14.825Z,5.27
2023-02-25T23:16:23.668Z,4.20
2023-02-25T23:19:28.430Z,4.13
2023-02-25T23:22:33.696Z,4.03
2023-02-25T23:25:40.735Z,3.93
2023-02-25T23:28:43.735Z,4.37
2023-02-25T23:31:49.803Z,4.50
2023-02-25T23:34:52.950Z,4.77
2023-02-25T23:37:55.955Z,3.77
2023-02-25T23:41:02.016Z,4.07
2023-02-25T23:44:06.743Z,3.90
2023-02-25T23:47:11.116Z,4.30
2023-02-25T23:50:17.561Z,4.00
2023-02-25T23:53:20.628Z,4.33
2023-02-25T23:56:24.547Z,4.23
2023-02-25T23:59:28.032Z,4.00
